Terminal Aerodrome Forecast
Issued by NWS

Current Version | Previous Version | Text Only | Print | Product List | Glossary On
Versions: 1 2 3 4 5 6 7 8 9 10 11 12 13 14
000
FTUS42 KTAE 210500
TAFVLD
TAF
KVLD 210540Z 2106/2206 04005KT P6SM OVC050
     FM210800 05006KT P6SM VCSH OVC006
     FM211900 07006KT 6SM -RA OVC012
     FM220100 08005KT 4SM RA OVC007=

USA.gov is the U.S. government's official web portal to all federal, state and local government web resources and services.